Time;durP1;ratioP1;P1;durP2;ratioP2;P2;SDS_P1;SDS_P2;PMS_P1;PMS_P2;Temp;Humidity;BMP_temperature;BMP_pressure;BME280_temperature;BME280_humidity;BME280_pressure;Samples;Min_cycle;Max_cycle;Signal;HPM_P1;HPM_P2
2021/09/22 00:00:23;;;;;;;2.01;1.91;;;;;;;10.90;62.32;100618.25;453295;116;930426;-78
2021/09/22 00:01:26;;;;;;;1.89;1.73;;;;;;;10.88;62.35;100616.57;452679;115;922545;-79
2021/09/22 00:02:30;;;;;;;2.31;2.21;;;;;;;10.88;62.39;100615.73;446652;118;922593;-79
2021/09/22 00:03:34;;;;;;;2.06;1.96;;;;;;;10.85;62.45;100614.29;445866;116;922669;-79
2021/09/22 00:04:38;;;;;;;3.87;2.17;;;;;;;10.85;62.51;100619.74;454002;116;923098;-79
2021/09/22 00:05:41;;;;;;;2.51;2.15;;;;;;;10.83;62.48;100619.11;452415;116;930437;-77
2021/09/22 00:06:47;;;;;;;2.39;2.08;;;;;;;10.82;62.54;100622.05;451771;116;930355;-78
2021/09/22 00:07:51;;;;;;;2.17;2.04;;;;;;;10.81;62.59;100618.47;454343;116;922975;-78
2021/09/22 00:08:54;;;;;;;2.21;2.11;;;;;;;10.80;62.64;100614.10;452034;116;923000;-78
2021/09/22 00:09:58;;;;;;;2.17;1.96;;;;;;;10.79;62.68;100617.88;453946;115;930801;-78
2021/09/22 00:11:03;;;;;;;2.44;2.24;;;;;;;10.77;62.72;100608.22;453079;116;923108;-78
2021/09/22 00:12:07;;;;;;;1.88;1.78;;;;;;;10.76;62.82;100617.45;453382;116;923040;-78
2021/09/22 00:13:12;;;;;;;1.98;1.88;;;;;;;10.76;62.95;100615.56;451901;116;922485;-78
2021/09/22 00:14:16;;;;;;;2.31;2.00;;;;;;;10.77;63.02;100619.13;450817;116;922950;-78
2021/09/22 00:15:23;;;;;;;2.17;2.00;;;;;;;10.77;62.96;100613.67;452706;116;930375;-78
2021/09/22 00:16:28;;;;;;;2.78;1.89;;;;;;;10.77;63.08;100605.49;452413;116;922994;-78
2021/09/22 00:17:33;;;;;;;2.07;1.87;;;;;;;10.78;63.08;100612.63;451338;116;922635;-78
2021/09/22 00:18:36;;;;;;;2.01;1.91;;;;;;;10.77;63.05;100608.22;453542;116;923017;-78
2021/09/22 00:19:40;;;;;;;1.95;1.85;;;;;;;10.77;63.06;100617.24;452628;116;923028;-79
2021/09/22 00:20:44;;;;;;;2.29;2.19;;;;;;;10.77;63.10;100610.95;453091;116;930428;-79
2021/09/22 00:21:48;;;;;;;2.16;2.05;;;;;;;10.75;63.14;100604.89;452342;116;930477;-78
2021/09/22 00:22:55;;;;;;;1.98;1.80;;;;;;;10.76;63.17;100615.56;450336;116;930332;-78
2021/09/22 00:23:58;;;;;;;2.37;2.17;;;;;;;10.76;63.16;100607.38;451315;116;922778;-78
2021/09/22 00:25:03;;;;;;;1.92;1.82;;;;;;;10.77;63.17;100617.24;455077;116;922034;-78
2021/09/22 00:26:07;;;;;;;1.95;1.85;;;;;;;10.76;63.16;100612.83;452379;116;929988;-79
2021/09/22 00:27:11;;;;;;;2.01;1.81;;;;;;;10.76;63.19;100609.27;452327;116;922103;-78
2021/09/22 00:28:14;;;;;;;1.99;1.76;;;;;;;10.76;63.23;100611.99;451879;116;929932;-79
2021/09/22 00:29:18;;;;;;;2.29;2.12;;;;;;;10.77;63.26;100613.67;452430;116;929832;-79
2021/09/22 00:30:23;;;;;;;2.38;2.23;;;;;;;10.76;63.22;100604.65;447895;118;930197;-78
2021/09/22 00:31:28;;;;;;;2.24;2.05;;;;;;;10.78;63.26;100615.36;448249;116;922634;-78
2021/09/22 00:32:32;;;;;;;2.29;1.98;;;;;;;10.77;63.31;100614.52;429830;120;922666;-79
2021/09/22 00:33:36;;;;;;;1.96;1.86;;;;;;;10.80;63.32;100607.80;448819;116;922590;-79
2021/09/22 00:34:39;;;;;;;2.31;2.21;;;;;;;10.82;63.34;100611.13;455869;116;923003;-79
2021/09/22 00:35:43;;;;;;;1.96;1.86;;;;;;;10.84;63.32;100603.59;455040;115;930412;-77
2021/09/22 00:36:49;;;;;;;2.24;2.02;;;;;;;10.85;63.35;100608.83;455415;116;930371;-78
2021/09/22 00:37:54;;;;;;;2.59;2.34;;;;;;;10.86;63.21;100606.95;456780;116;922573;-78
2021/09/22 00:38:57;;;;;;;2.14;2.04;;;;;;;10.86;63.19;100605.02;455664;116;922971;-78
2021/09/22 00:40:01;;;;;;;1.84;1.74;;;;;;;10.87;63.03;100608.59;456014;116;930425;-77
2021/09/22 00:41:05;;;;;;;2.31;2.19;;;;;;;10.86;62.98;100609.67;455316;116;930448;-79
2021/09/22 00:42:09;;;;;;;2.67;2.49;;;;;;;10.86;63.08;100605.02;456244;116;930306;-78
2021/09/22 00:43:14;;;;;;;2.33;2.15;;;;;;;10.86;63.09;100609.67;454494;115;922590;-78
2021/09/22 00:44:18;;;;;;;2.29;2.12;;;;;;;10.85;63.00;100602.54;455966;116;923035;-79
2021/09/22 00:45:21;;;;;;;2.24;2.08;;;;;;;10.84;63.07;100600.86;456860;116;923063;-79
2021/09/22 00:46:26;;;;;;;2.37;2.06;;;;;;;10.87;63.17;100597.69;455016;116;930273;-77
2021/09/22 00:47:30;;;;;;;2.25;2.06;;;;;;;10.88;63.18;100602.09;455425;115;923011;-78
2021/09/22 00:48:36;;;;;;;2.18;1.91;;;;;;;10.89;63.13;100590.13;455937;115;923052;-78
2021/09/22 00:49:41;;;;;;;3.21;2.02;;;;;;;10.90;63.07;100593.70;456277;116;922824;-78
2021/09/22 00:50:47;;;;;;;2.54;2.08;;;;;;;10.90;63.08;100593.70;446364;118;922607;-79
2021/09/22 00:51:51;;;;;;;3.49;1.96;;;;;;;10.88;63.02;100593.91;447353;116;930577;-78
2021/09/22 00:52:54;;;;;;;2.20;2.10;;;;;;;10.88;63.04;100599.36;455963;115;922940;-78
2021/09/22 00:53:58;;;;;;;2.16;2.06;;;;;;;10.86;63.10;100593.30;455757;116;922598;-78
2021/09/22 00:55:02;;;;;;;2.04;1.94;;;;;;;10.86;63.14;100594.12;455206;115;930324;-78
2021/09/22 00:56:07;;;;;;;2.29;1.99;;;;;;;10.87;63.22;100593.06;455104;115;930117;-78
2021/09/22 00:57:13;;;;;;;3.43;1.99;;;;;;;10.88;63.26;100594.75;455369;116;922486;-78
2021/09/22 00:58:16;;;;;;;2.57;2.37;;;;;;;10.90;63.29;100594.54;456226;116;930282;-77
2021/09/22 00:59:20;;;;;;;1.92;1.82;;;;;;;10.92;63.29;100595.14;456056;116;922497;-78
2021/09/22 01:00:28;;;;;;;2.41;2.21;;;;;;;10.96;63.34;100590.11;456336;116;922552;-78
2021/09/22 01:01:33;;;;;;;2.67;2.47;;;;;;;10.97;63.37;100592.59;454957;116;922990;-78
2021/09/22 01:02:38;;;;;;;2.54;2.34;;;;;;;10.98;63.35;100588.81;455850;116;923044;-79
2021/09/22 01:03:42;;;;;;;2.55;2.05;;;;;;;11.00;63.27;100592.18;446844;118;922731;-77
2021/09/22 01:04:45;;;;;;;3.45;2.56;;;;;;;11.03;63.31;100588.16;447588;116;922611;-78
2021/09/22 01:05:50;;;;;;;2.41;2.21;;;;;;;11.06;63.29;100590.47;456394;116;922929;-78
2021/09/22 01:06:55;;;;;;;2.20;2.09;;;;;;;11.09;63.25;100595.48;456697;116;922513;-79
2021/09/22 01:07:59;;;;;;;2.16;2.06;;;;;;;11.09;63.20;100590.86;455431;116;922594;-78
2021/09/22 01:09:03;;;;;;;2.44;2.34;;;;;;;11.10;63.20;100592.55;455940;116;923389;-78
2021/09/22 01:10:07;;;;;;;2.45;1.75;;;;;;;11.11;63.22;100596.95;454596;116;923593;-78
2021/09/22 01:11:11;;;;;;;3.11;2.22;;;;;;;11.11;63.22;100591.49;455312;116;922323;-78
2021/09/22 01:12:15;;;;;;;2.58;2.38;;;;;;;11.11;63.17;100587.92;455989;115;922692;-77
2021/09/22 01:13:19;;;;;;;2.19;1.97;;;;;;;11.11;63.05;100588.77;454926;116;930267;-78
2021/09/22 01:14:24;;;;;;;2.57;2.30;;;;;;;11.13;63.00;100585.83;455851;115;922944;-76
2021/09/22 01:15:38;;;;;;;3.67;3.40;;;;;;;11.13;62.96;100591.28;457405;116;922769;-78
2021/09/22 01:16:44;;;;;;;3.74;3.44;;;;;;;11.13;62.91;100594.85;456011;115;922701;-77
2021/09/22 01:17:47;;;;;;;2.46;2.32;;;;;;;11.13;62.84;100592.13;455730;116;922774;-77
2021/09/22 01:18:51;;;;;;;2.78;2.50;;;;;;;11.12;62.81;100595.91;455699;116;922474;-77
2021/09/22 01:20:00;;;;;;;1.98;1.88;;;;;;;11.11;62.74;100594.22;455069;116;930352;-78
2021/09/22 01:21:05;;;;;;;2.62;2.47;;;;;;;11.09;62.77;100587.30;455786;116;930134;-77
2021/09/22 01:22:09;;;;;;;2.34;2.24;;;;;;;11.06;62.79;100585.86;455553;116;931447;-78
2021/09/22 01:23:18;;;;;;;2.26;2.13;;;;;;;11.05;62.90;100586.91;454146;116;922443;-78
2021/09/22 01:24:22;;;;;;;2.35;2.17;;;;;;;11.05;62.92;100589.63;456401;116;923227;-78
2021/09/22 01:25:27;;;;;;;2.19;2.09;;;;;;;11.04;62.99;100592.57;443374;118;930264;-78
2021/09/22 01:26:32;;;;;;;2.59;2.39;;;;;;;11.05;63.09;100595.09;446404;116;930360;-78
2021/09/22 01:27:51;;;;;;;2.89;2.41;;;;;;;11.06;63.16;100591.31;455968;116;923458;-79
2021/09/22 01:28:55;;;;;;;3.38;2.39;;;;;;;11.08;63.17;100593.83;456160;116;922563;-77
2021/09/22 01:30:00;;;;;;;2.41;2.31;;;;;;;11.10;63.17;100597.16;455357;116;922957;-78
2021/09/22 01:31:05;;;;;;;2.21;2.03;;;;;;;11.11;63.19;100596.95;453454;115;930438;-79
2021/09/22 01:32:11;;;;;;;2.29;2.18;;;;;;;11.11;63.24;100594.22;454935;116;922551;-78
2021/09/22 01:33:17;;;;;;;2.32;2.22;;;;;;;11.12;63.28;100595.91;455548;115;922594;-78
2021/09/22 01:34:26;;;;;;;3.69;2.30;;;;;;;11.13;63.33;100597.58;455220;116;923128;-79
2021/09/22 01:35:38;;;;;;;3.42;2.44;;;;;;;11.14;63.32;100599.23;450387;115;930526;-79
2021/09/22 01:36:47;;;;;;;2.50;2.22;;;;;;;11.15;63.34;100598.18;454828;116;923099;-81
2021/09/22 01:37:51;;;;;;;2.51;2.31;;;;;;;11.17;63.37;100593.36;456079;116;922615;-79
2021/09/22 01:38:57;;;;;;;2.69;2.49;;;;;;;11.19;63.36;100595.88;437196;118;923056;-79
2021/09/22 01:40:00;;;;;;;2.59;2.37;;;;;;;11.20;63.29;100584.72;453770;116;922584;-79
2021/09/22 01:41:06;;;;;;;2.49;2.29;;;;;;;11.22;63.21;100592.69;455348;116;930425;-79
2021/09/22 01:42:10;;;;;;;2.46;2.31;;;;;;;11.22;63.15;100596.27;443134;118;923138;-78
2021/09/22 01:43:14;;;;;;;2.53;2.35;;;;;;;11.22;63.15;100598.16;442397;116;922749;-78
2021/09/22 01:44:20;;;;;;;2.70;2.46;;;;;;;11.19;63.15;100585.77;454799;115;923386;-79
2021/09/22 01:45:25;;;;;;;2.52;2.42;;;;;;;11.17;63.16;100587.89;433044;115;922903;-77
2021/09/22 01:46:30;;;;;;;2.78;2.62;;;;;;;11.16;63.22;100590.83;456833;116;922791;-78
2021/09/22 01:47:34;;;;;;;2.41;2.31;;;;;;;11.15;63.28;100591.88;455230;116;922237;-77
2021/09/22 01:48:39;;;;;;;2.36;2.19;;;;;;;11.13;63.36;100596.73;456512;116;923164;-78
2021/09/22 01:49:43;;;;;;;2.78;2.58;;;;;;;11.12;63.42;100584.98;455926;116;922755;-78
2021/09/22 01:50:49;;;;;;;2.77;2.57;;;;;;;11.12;63.48;100579.53;455374;116;930085;-78
2021/09/22 01:51:58;;;;;;;2.89;2.64;;;;;;;11.13;63.55;100589.39;456335;116;922268;-79
2021/09/22 01:53:04;;;;;;;2.37;2.23;;;;;;;11.16;63.51;100596.30;455358;116;922821;-78
2021/09/22 01:54:08;;;;;;;2.78;2.58;;;;;;;11.16;63.47;100582.64;456314;115;922782;-79
2021/09/22 01:55:14;;;;;;;2.89;2.61;;;;;;;11.15;63.39;100591.88;455443;116;922995;-79
2021/09/22 01:56:19;;;;;;;3.58;2.22;;;;;;;11.11;63.40;100583.31;441358;120;922609;-79
2021/09/22 01:57:23;;;;;;;2.77;2.58;;;;;;;11.11;63.53;100586.03;439004;120;922679;-79
2021/09/22 01:58:28;;;;;;;2.52;2.33;;;;;;;11.08;63.60;100583.73;456088;116;922493;-78
2021/09/22 01:59:36;;;;;;;2.72;2.59;;;;;;;11.07;63.72;100582.08;456181;115;922929;-79
2021/09/22 02:00:58;;;;;;;2.43;2.33;;;;;;;11.07;63.82;100581.23;455095;115;923030;-77
2021/09/22 02:02:07;;;;;;;2.57;2.37;;;;;;;11.05;63.85;100586.91;444790;115;923238;-78
2021/09/22 02:03:15;;;;;;;2.55;2.28;;;;;;;11.04;63.89;100582.50;453265;115;922550;-77
2021/09/22 02:04:20;;;;;;;2.74;2.54;;;;;;;11.03;63.93;100586.27;455405;116;922545;-78
2021/09/22 02:05:26;;;;;;;2.70;2.50;;;;;;;11.01;63.91;100582.95;454928;115;923100;-78
2021/09/22 02:06:35;;;;;;;2.67;2.48;;;;;;;10.98;63.90;100577.91;452968;115;923078;-78
2021/09/22 02:07:38;;;;;;;2.38;2.18;;;;;;;10.95;64.09;100581.08;456888;116;922675;-78
2021/09/22 02:08:44;;;;;;;3.79;2.38;;;;;;;10.93;64.17;100591.36;455034;116;922490;-79
2021/09/22 02:10:08;;;;;;;2.51;2.34;;;;;;;10.92;64.25;100578.77;455710;115;922879;-79
2021/09/22 02:11:12;;;;;;;2.69;2.47;;;;;;;10.92;64.30;100580.66;454530;115;922957;-79
2021/09/22 02:12:15;;;;;;;2.89;2.69;;;;;;;10.90;64.31;100586.36;455108;116;922465;-79
2021/09/22 02:13:19;;;;;;;3.08;2.58;;;;;;;10.88;64.38;100575.66;455276;115;930210;-78
2021/09/22 02:14:24;;;;;;;2.71;2.51;;;;;;;10.90;64.44;100578.17;455437;115;922522;-78
2021/09/22 02:15:29;;;;;;;2.71;2.51;;;;;;;10.92;64.46;100578.77;441742;118;923592;-78
2021/09/22 02:16:35;;;;;;;2.24;2.14;;;;;;;10.92;64.44;100569.75;443325;116;923209;-78
2021/09/22 02:17:59;;;;;;;2.67;2.44;;;;;;;10.90;64.38;100577.33;455142;115;923095;-78
2021/09/22 02:19:03;;;;;;;2.56;2.44;;;;;;;10.89;64.45;100568.31;455433;116;922894;-78
2021/09/22 02:20:10;;;;;;;2.82;2.62;;;;;;;10.87;64.42;100568.52;456809;116;922981;-78
2021/09/22 02:21:15;;;;;;;2.62;2.30;;;;;;;10.87;64.45;100575.86;455373;115;930349;-79
2021/09/22 02:22:19;;;;;;;3.49;2.59;;;;;;;10.87;64.53;100573.13;456126;115;922614;-79
2021/09/22 02:23:39;;;;;;;2.34;2.24;;;;;;;10.87;64.49;100568.52;453259;116;930362;-78
2021/09/22 02:24:44;;;;;;;2.85;2.65;;;;;;;10.88;64.54;100569.36;455876;116;922952;-79
2021/09/22 02:25:47;;;;;;;2.54;2.34;;;;;;;10.88;64.52;100566.63;455844;115;923039;-77
2021/09/22 02:26:52;;;;;;;2.68;2.48;;;;;;;10.89;64.55;100571.03;446833;118;923037;-78
2021/09/22 02:27:56;;;;;;;2.78;2.62;;;;;;;10.88;64.54;100569.36;446705;116;930418;-79
2021/09/22 02:29:00;;;;;;;2.62;2.46;;;;;;;10.88;64.53;100572.92;451448;115;923502;-77
2021/09/22 02:30:06;;;;;;;2.70;2.44;;;;;;;10.88;64.48;100572.92;450884;116;922707;-77
2021/09/22 02:31:10;;;;;;;2.81;2.66;;;;;;;10.87;64.45;100570.41;455277;115;922631;-78
2021/09/22 02:32:16;;;;;;;2.77;2.57;;;;;;;10.84;64.51;100568.97;455228;116;923021;-78
2021/09/22 02:33:20;;;;;;;2.51;2.31;;;;;;;10.84;64.56;100570.86;453105;115;923264;-79
2021/09/22 02:34:23;;;;;;;3.08;2.58;;;;;;;10.85;64.60;100577.98;452912;116;923072;-80
2021/09/22 02:35:27;;;;;;;2.78;2.48;;;;;;;10.84;64.53;100563.52;453133;116;930548;-78
2021/09/22 02:36:51;;;;;;;2.61;2.47;;;;;;;10.84;64.52;100573.58;452338;115;930399;-76
2021/09/22 02:37:55;;;;;;;2.54;2.34;;;;;;;10.83;64.59;100574.62;452985;116;922850;-78
2021/09/22 02:39:01;;;;;;;2.33;2.23;;;;;;;10.82;64.58;100575.67;453259;115;922895;-79
2021/09/22 02:40:12;;;;;;;2.61;2.48;;;;;;;10.81;64.64;100577.56;452233;115;922947;-78
2021/09/22 02:41:16;;;;;;;3.45;2.46;;;;;;;10.82;64.59;100572.95;453478;116;922603;-78
2021/09/22 02:42:19;;;;;;;2.94;2.74;;;;;;;10.81;64.66;100574.84;455159;115;922860;-79
2021/09/22 02:43:24;;;;;;;3.43;2.85;;;;;;;10.82;64.68;100578.41;455418;115;922663;-78
2021/09/22 02:44:28;;;;;;;3.25;3.05;;;;;;;10.83;64.74;100582.81;453124;116;922862;-79
2021/09/22 02:45:31;;;;;;;2.69;2.49;;;;;;;10.83;64.74;100582.81;453329;116;922461;-77
2021/09/22 02:46:37;;;;;;;3.47;2.68;;;;;;;10.85;64.75;100583.45;453850;116;922500;-79
2021/09/22 02:47:41;;;;;;;2.99;2.79;;;;;;;10.88;64.74;100583.00;454324;116;922486;-78
2021/09/22 02:48:45;;;;;;;3.05;2.74;;;;;;;10.89;64.67;100581.95;453311;116;922490;-78
2021/09/22 02:49:49;;;;;;;3.24;2.79;;;;;;;10.90;64.64;100590.97;453110;116;930260;-79
2021/09/22 02:50:53;;;;;;;3.80;2.88;;;;;;;10.90;64.64;100590.97;452689;116;922504;-79
2021/09/22 02:51:57;;;;;;;2.87;2.67;;;;;;;10.88;64.62;100586.56;452669;116;923014;-77
2021/09/22 02:53:00;;;;;;;3.09;2.88;;;;;;;10.87;64.59;100584.05;453201;116;930506;-78
2021/09/22 02:54:04;;;;;;;2.89;2.46;;;;;;;10.88;64.66;100580.27;453188;116;930576;-80
2021/09/22 02:55:09;;;;;;;3.13;2.81;;;;;;;10.90;64.69;100585.52;451961;115;922683;-79
2021/09/22 02:56:13;;;;;;;2.93;2.73;;;;;;;10.90;64.70;100585.52;453457;116;923063;-79
2021/09/22 02:57:17;;;;;;;2.94;2.73;;;;;;;10.91;64.57;100587.20;443714;117;923002;-78
2021/09/22 02:58:22;;;;;;;3.21;2.92;;;;;;;10.91;64.53;100587.20;441797;117;923096;-78
2021/09/22 02:59:26;;;;;;;2.73;2.52;;;;;;;10.90;64.53;100586.36;451428;115;922702;-79
2021/09/22 03:00:31;;;;;;;2.86;2.65;;;;;;;10.89;64.53;100587.41;452258;116;922730;-78
2021/09/22 03:01:35;;;;;;;3.08;2.88;;;;;;;10.89;64.47;100581.95;452494;116;922577;-77
2021/09/22 03:02:39;;;;;;;3.25;2.88;;;;;;;10.86;64.53;100585.13;453001;115;922792;-77
2021/09/22 03:03:43;;;;;;;3.71;3.44;;;;;;;10.86;64.55;100579.67;452788;116;922577;-78
2021/09/22 03:04:47;;;;;;;3.33;2.80;;;;;;;10.85;64.51;100577.98;452853;116;922546;-79
2021/09/22 03:05:54;;;;;;;2.77;2.57;;;;;;;10.83;64.46;100577.36;452757;116;922554;-80
2021/09/22 03:06:58;;;;;;;3.13;2.88;;;;;;;10.81;64.52;100577.56;452191;116;922146;-78
2021/09/22 03:08:03;;;;;;;2.55;2.41;;;;;;;10.80;64.54;100588.72;451582;116;923021;-78
2021/09/22 03:09:07;;;;;;;2.99;2.78;;;;;;;10.80;64.60;100575.92;453323;115;922563;-80
2021/09/22 03:10:11;;;;;;;3.04;2.84;;;;;;;10.79;64.59;100587.88;453129;116;923084;-77
2021/09/22 03:11:15;;;;;;;2.87;2.69;;;;;;;10.79;64.64;100587.88;441548;118;922643;-80
2021/09/22 03:12:19;;;;;;;3.05;2.76;;;;;;;10.80;64.68;100577.80;442718;117;923139;-78
2021/09/22 03:13:22;;;;;;;3.34;2.65;;;;;;;10.82;64.71;100578.41;453143;116;923037;-78
2021/09/22 03:14:26;;;;;;;2.94;2.70;;;;;;;10.82;64.74;100584.70;453225;116;923640;-78
2021/09/22 03:15:30;;;;;;;2.85;2.60;;;;;;;10.84;64.69;100582.60;452925;115;930325;-78
2021/09/22 03:16:34;;;;;;;4.65;2.94;;;;;;;10.85;64.71;100580.72;452912;115;922699;-77
2021/09/22 03:17:38;;;;;;;3.48;2.72;;;;;;;10.84;64.62;100585.33;453242;115;923137;-79
2021/09/22 03:18:43;;;;;;;2.67;2.44;;;;;;;10.85;64.64;100583.45;452956;116;922546;-79
2021/09/22 03:19:47;;;;;;;2.72;2.52;;;;;;;10.85;64.69;100587.02;452711;116;923098;-79
2021/09/22 03:20:52;;;;;;;4.46;2.66;;;;;;;10.86;64.75;100585.93;453195;116;922482;-76
2021/09/22 03:21:56;;;;;;;3.06;2.82;;;;;;;10.86;64.62;100590.58;452186;116;930490;-78
2021/09/22 03:23:01;;;;;;;2.66;2.46;;;;;;;10.84;64.64;100587.22;450593;116;930928;-78
2021/09/22 03:24:07;;;;;;;3.07;2.87;;;;;;;10.83;64.74;100585.54;453236;115;922818;-78
2021/09/22 03:25:11;;;;;;;2.46;2.35;;;;;;;10.83;64.76;100589.11;452573;115;923121;-78
2021/09/22 03:26:15;;;;;;;4.25;2.74;;;;;;;10.83;64.81;100586.37;453687;116;922987;-77
2021/09/22 03:27:19;;;;;;;4.44;2.57;;;;;;;10.84;64.80;100592.67;452899;116;922893;-78
2021/09/22 03:28:24;;;;;;;4.01;2.88;;;;;;;10.82;64.78;100587.42;453488;116;923449;-79
2021/09/22 03:29:28;;;;;;;2.94;2.72;;;;;;;10.84;64.83;100592.67;453824;116;922511;-79
2021/09/22 03:30:33;;;;;;;2.52;2.33;;;;;;;10.84;64.75;100593.52;453183;115;923276;-78
2021/09/22 03:31:41;;;;;;;2.78;2.52;;;;;;;10.84;64.71;100590.78;453763;115;922652;-78
2021/09/22 03:32:44;;;;;;;2.74;2.54;;;;;;;10.84;64.75;100595.41;453192;116;922678;-79
2021/09/22 03:33:48;;;;;;;2.64;2.44;;;;;;;10.83;64.74;100589.11;449968;117;922109;-77
2021/09/22 03:34:52;;;;;;;3.35;2.39;;;;;;;10.82;64.68;100592.04;449542;117;922098;-78
2021/09/22 03:35:55;;;;;;;3.94;2.36;;;;;;;10.80;64.75;100594.17;442017;120;930363;-80
2021/09/22 03:36:59;;;;;;;3.06;2.42;;;;;;;10.80;64.85;100588.72;442437;117;922732;-78
2021/09/22 03:38:03;;;;;;;3.07;2.62;;;;;;;10.79;64.88;100590.60;448589;115;922903;-80
2021/09/22 03:39:07;;;;;;;3.07;2.85;;;;;;;10.80;64.88;100594.17;448060;117;930274;-78
2021/09/22 03:40:12;;;;;;;2.62;2.42;;;;;;;10.79;64.88;100595.22;447430;117;930449;-77
2021/09/22 03:41:15;;;;;;;2.74;2.54;;;;;;;10.76;65.02;100590.17;448531;115;923028;-79
2021/09/22 03:42:19;;;;;;;3.36;2.56;;;;;;;10.76;65.02;100590.17;448774;117;923083;-78
2021/09/22 03:43:24;;;;;;;2.65;2.45;;;;;;;10.75;65.04;100599.44;447916;117;930311;-78
2021/09/22 03:44:27;;;;;;;2.57;2.36;;;;;;;10.73;65.08;100596.08;449104;117;922987;-80
2021/09/22 03:45:32;;;;;;;2.65;2.45;;;;;;;10.72;65.16;100597.12;448380;117;922429;-79
2021/09/22 03:46:38;;;;;;;2.98;2.41;;;;;;;10.70;65.22;100602.78;448479;117;930338;-79
2021/09/22 03:47:42;;;;;;;2.72;2.50;;;;;;;10.71;65.31;100598.17;449740;117;922613;-79
2021/09/22 03:48:46;;;;;;;2.76;2.55;;;;;;;10.71;65.34;100598.17;437643;117;930444;-78
2021/09/22 03:49:49;;;;;;;3.02;2.78;;;;;;;10.71;65.36;100600.89;429913;120;922687;-78
2021/09/22 03:50:58;;;;;;;3.04;2.56;;;;;;;10.72;65.39;100605.30;439939;115;923024;-79
2021/09/22 03:52:13;;;;;;;3.26;2.87;;;;;;;10.71;65.38;100603.63;449466;117;922833;-78
2021/09/22 03:53:17;;;;;;;2.39;2.26;;;;;;;10.70;65.38;100599.22;448382;117;922916;-82
2021/09/22 03:54:21;;;;;;;2.91;2.71;;;;;;;10.69;65.45;100590.23;448729;117;922581;-80
2021/09/22 03:55:25;;;;;;;2.69;2.54;;;;;;;10.69;65.51;100600.30;448173;117;923401;-79
2021/09/22 03:56:30;;;;;;;2.61;2.41;;;;;;;10.69;65.53;100597.56;448294;117;922603;-77
2021/09/22 03:57:34;;;;;;;2.54;2.34;;;;;;;10.70;65.56;100601.94;448416;117;922487;-79
2021/09/22 03:58:37;;;;;;;2.48;2.28;;;;;;;10.71;65.56;100604.46;448315;117;922997;-79
2021/09/22 03:59:41;;;;;;;3.07;2.74;;;;;;;10.72;65.50;100600.69;440801;120;922673;-78
2021/09/22 04:00:47;;;;;;;3.12;2.68;;;;;;;10.72;65.50;100605.30;441496;117;922816;-79
2021/09/22 04:01:51;;;;;;;2.91;2.59;;;;;;;10.71;65.55;100598.17;449643;117;923128;-79
2021/09/22 04:02:55;;;;;;;2.90;2.69;;;;;;;10.71;65.56;100596.28;449029;117;923048;-77
2021/09/22 04:03:59;;;;;;;4.83;2.51;;;;;;;10.71;65.59;100598.17;448661;117;922987;-76
2021/09/22 04:05:04;;;;;;;3.38;2.60;;;;;;;10.71;65.71;100601.73;449383;117;922537;-78
2021/09/22 04:06:08;;;;;;;2.69;2.49;;;;;;;10.73;65.79;100598.80;448195;117;922617;-79
2021/09/22 04:07:12;;;;;;;2.58;2.30;;;;;;;10.75;65.79;100593.98;448587;117;922976;-77
2021/09/22 04:08:16;;;;;;;3.48;2.59;;;;;;;10.75;65.78;100592.06;435117;120;922594;-80
2021/09/22 04:09:20;;;;;;;3.46;2.41;;;;;;;10.76;65.68;100598.36;435994;118;922696;-76
2021/09/22 04:10:24;;;;;;;2.82;2.06;;;;;;;10.75;65.64;100594.79;444122;117;922903;-79
2021/09/22 04:11:29;;;;;;;2.92;2.73;;;;;;;10.75;65.70;100591.25;436974;118;922595;-78
2021/09/22 04:12:33;;;;;;;2.29;2.13;;;;;;;10.75;65.84;100591.25;437905;117;930499;-78
2021/09/22 04:13:37;;;;;;;2.26;2.15;;;;;;;10.76;65.86;100595.63;448621;117;922908;-79
2021/09/22 04:14:43;;;;;;;2.48;2.29;;;;;;;10.76;65.85;100596.47;447794;117;922763;-78
2021/09/22 04:15:47;;;;;;;2.75;2.35;;;;;;;10.76;65.85;100593.74;448283;117;922656;-81
2021/09/22 04:16:51;;;;;;;3.02;2.61;;;;;;;10.76;65.79;100590.17;448038;117;923261;-79
2021/09/22 04:17:56;;;;;;;2.85;2.49;;;;;;;10.77;65.82;100600.88;447630;117;923133;-76
2021/09/22 04:18:59;;;;;;;3.49;2.87;;;;;;;10.77;65.86;100595.42;449255;117;922502;-77
2021/09/22 04:20:06;;;;;;;3.54;2.55;;;;;;;10.80;65.85;100591.44;441115;118;924966;-78
2021/09/22 04:21:12;;;;;;;2.73;2.21;;;;;;;10.82;65.77;100597.50;439575;117;922359;-81
2021/09/22 04:22:21;;;;;;;4.50;2.81;;;;;;;10.81;65.60;100602.11;449473;117;922496;-78
2021/09/22 04:23:22;;;;;;;2.33;2.23;;;;;;;10.81;65.50;100598.55;448434;115;922094;-79
2021/09/22 04:24:26;;;;;;;2.21;2.04;;;;;;;10.80;65.55;100605.08;448541;117;922586;-76
2021/09/22 04:25:33;;;;;;;2.47;2.28;;;;;;;10.80;65.49;100600.46;449074;117;922825;-78
2021/09/22 04:26:39;;;;;;;2.73;2.54;;;;;;;10.79;65.39;100606.97;448008;117;922550;-78
2021/09/22 04:27:44;;;;;;;2.64;2.44;;;;;;;10.78;65.39;100608.02;445222;118;923163;-79
2021/09/22 04:29:06;;;;;;;3.23;2.77;;;;;;;10.77;65.51;100592.70;443453;117;922647;-76
2021/09/22 04:30:29;;;;;;;2.73;2.53;;;;;;;10.79;65.57;100598.78;448477;117;922762;-79
2021/09/22 04:31:51;;;;;;;2.55;2.36;;;;;;;10.80;65.55;100602.34;448665;117;923023;-77
2021/09/22 04:33:14;;;;;;;2.66;2.39;;;;;;;10.79;65.46;100600.67;449138;115;922641;-77
2021/09/22 04:34:36;;;;;;;3.77;2.62;;;;;;;10.77;65.48;100608.22;454155;115;922704;-76
2021/09/22 04:35:58;;;;;;;2.97;2.69;;;;;;;10.77;65.64;100603.60;455877;115;922588;-76
2021/09/22 04:37:09;;;;;;;2.67;2.48;;;;;;;10.76;65.64;100604.65;448449;118;922950;-78
2021/09/22 04:38:24;;;;;;;2.73;2.53;;;;;;;10.76;65.74;100603.81;434917;121;922741;-77
2021/09/22 04:39:45;;;;;;;3.69;2.50;;;;;;;10.76;65.73;100603.81;437957;121;922878;-76
2021/09/22 04:41:08;;;;;;;3.09;2.63;;;;;;;10.75;65.83;100604.89;455178;116;922614;-76
2021/09/22 04:42:30;;;;;;;2.87;2.67;;;;;;;10.74;66.05;100606.77;455043;115;922612;-77
2021/09/22 04:43:52;;;;;;;2.84;2.64;;;;;;;10.77;66.08;100605.49;455132;115;922634;-78
2021/09/22 04:45:14;;;;;;;2.95;2.72;;;;;;;10.80;66.00;100607.80;454314;116;923106;-76
2021/09/22 04:46:36;;;;;;;2.98;2.78;;;;;;;10.81;65.77;100609.45;455806;116;922572;-76
2021/09/22 04:48:00;;;;;;;3.73;3.00;;;;;;;10.82;65.64;100608.41;454727;116;923059;-78
2021/09/22 04:49:22;;;;;;;2.89;2.67;;;;;;;10.81;65.51;100618.47;454742;116;922600;-76
2021/09/22 04:50:46;;;;;;;3.15;2.76;;;;;;;10.78;65.47;100601.72;454405;116;922565;-77
2021/09/22 04:52:08;;;;;;;4.06;2.87;;;;;;;10.76;65.54;100611.99;455733;116;923531;-77
2021/09/22 04:53:31;;;;;;;3.66;3.09;;;;;;;10.75;65.52;100613.07;455557;116;922561;-78
2021/09/22 04:54:53;;;;;;;4.42;2.78;;;;;;;10.75;65.49;100615.80;456310;116;922498;-79
2021/09/22 04:56:16;;;;;;;3.58;2.71;;;;;;;10.75;65.52;100613.87;455203;116;922547;-77
2021/09/22 04:57:39;;;;;;;2.93;2.47;;;;;;;10.76;65.46;100606.53;456177;116;922564;-77
2021/09/22 04:59:01;;;;;;;3.16;2.84;;;;;;;10.78;65.46;100609.90;456367;116;922623;-77
2021/09/22 05:00:24;;;;;;;4.65;2.79;;;;;;;10.79;65.34;100606.13;456694;116;922932;-78
2021/09/22 05:01:47;;;;;;;4.81;2.96;;;;;;;10.78;65.31;100610.73;454741;116;923064;-76
2021/09/22 05:03:09;;;;;;;3.36;3.08;;;;;;;10.79;65.46;100611.58;454164;115;923050;-76
2021/09/22 05:04:31;;;;;;;3.07;2.87;;;;;;;10.80;65.48;100607.80;424419;122;922843;-78
2021/09/22 05:05:45;;;;;;;3.29;3.06;;;;;;;10.82;65.49;100611.13;418829;124;923376;-78
2021/09/22 05:06:56;;;;;;;3.33;3.04;;;;;;;10.94;65.52;100609.41;471714;110;947862;-78